Airfield :
LOGIN :

Register | Disclaimer

   EN    FR    IT 

 










Legend :    VFR   Marginal VFR   IFR   Intensive IFR   Very Intensive IFR
Visi :
Ceiling :
>= 8 km
>= 3000ft
5 to 8 km
1000 to 3000 ft
1500m to 5 km
500 to 1000 ft
800 to 1500m
200 to 500 ft
< 800m
< 200 ft
Symbols :   Thunderstorms  Fog  Heavy snow  Heavy precipitations  Wind > 20 kt
SIGMETs :     Misc.  Thunderstorms  Icing  Turbulence  Mountain Waves  Volcanic Ashes






- Airport Elevation : 1058 ft
- IATA code : SCN


EDDR - Saarbrücken

CURRENT METAR :
  • 260850Z 26019G29KT 9999 -RA FEW007 BKN009 07/06 Q1000 TEMPO BKN010

EXPIRED METARs :
  • 260820Z 26018G30KT 6000 -RA FEW007 BKN009 07/06 Q1000 TEMPO 4000 RA
  • 260750Z 26017KT 9000 -RA FEW007 BKN010 07/06 Q1000 TEMPO RA BKN009
  • 260720Z 26018KT 9000 -RA FEW007 BKN010 07/06 Q1000 TEMPO RA BKN009
  • 260650Z 25017KT 9999 -RA FEW007 BKN011 07/06 Q1000 TEMPO RA BKN009
  • 260620Z 25018KT 9999 -RA FEW010 BKN015 07/06 Q0999 TEMPO RA BKN012

TAF AMD TAF EDDR
Valid from the 26 at 06:00 until the 27 at 06:00 UTC


260633Z 2606/2706 25015G25KT 9999 BKN020
TEMPO 2606/2612 RA BKN008
TEMPO 2612/2622 4000 SHRA BKN015CB
PROB40
TEMPO 2612/2618 BKN008
BECMG 2616/2619 27008KT
PROB40
TEMPO 2622/2706 2500 RADZ BKN004
BECMG 2704/2706 21008KT



MET'MAP, your aeronautical weather chart ! - Copyright ORBIFLY December 2007 - Disclaimer

ORBIFLY MET'MAP TEAM :

Programming & Development : Alexandra Zaïnal
Concept & original design : Baudouin d'Aumeries
Assistance for programming : Marc-Olivier Méhu
Technical & hardware support : Manuel Goepfert

Contact : metmap@orbifly.com




SOURCES & CREDITS :

   NOAA